CW0262 Weather Reports


Display with metric or nautical units.
time (UTC)temp
F
wind
direction
speed
MPH
gust
MPH
rain 1hr
in
rain 24hr
in
rain mn
in
humidity
%
barometer
mb
20240527043704 80 141 0.0 0.0 0.00 0.00 0.00 77 1016.1
20240527022704 82 159 2.0 3.0 0.00 0.00 0.00 69 1016.1
20240527015204 83 129 3.0 6.0 0.00 0.00 0.00 68 1015.1
20240527014704 83 144 3.0 8.0 0.00 0.00 0.00 68 1015.1
20240527012704 83 116 3.0 6.0 0.00 0.00 0.00 67 1015.1
20240527010203 83 152 3.0 6.0 0.00 0.00 0.00 67 1015.1
20240527005704 83 137 4.0 6.0 0.00 0.00 0.00 67 1015.1
20240527004704 83 131 3.0 6.0 0.00 0.00 0.00 66 1015.1
20240526233704 86 129 3.0 6.0 0.00 0.00 0.00 65 1014.1
20240526232705 86 117 4.0 8.0 0.00 0.00 0.00 65 1014.1
20240526221204 89 108 3.0 6.0 0.00 0.00 0.00 64 1014.1
20240526194705 92 112 6.0 13.0 0.00 0.00 0.00 63 1013.1
20240526181705 91 108 6.0 9.0 0.00 0.00 0.00 63 1014.8
20240526175705 91 74 7.0 10.0 0.00 0.00 0.00 63 1014.1
20240526172204 91 103 7.0 10.0 0.00 0.00 0.00 64 1015.1
20240526161705 91 110 3.0 8.0 0.00 0.00 0.00 63 1015.1
20240526160705 92 133 6.0 8.0 0.00 0.00 0.00 63 1015.1
20240526154705 90 47 3.0 6.0 0.00 0.00 0.00 64 1015.1
20240526154205 92 76 5.0 8.0 0.00 0.00 0.00 63 1015.1
20240526144205 88 89 3.0 5.0 0.00 0.00 0.00 64 1015.1
20240526131704 88 199 1.0 6.0 0.00 0.00 0.00 68 1015.1
20240526123205 82 204 0.0 0.0 0.00 0.00 0.00 79 1015.1
20240526113204 78 139 0.0 0.0 0.00 0.00 0.00 100 1014.5
20240526112704 77 139 0.0 0.0 0.00 0.00 0.00 100 1014.1
20240526110704 74 139 0.0 0.0 0.00 0.00 0.00 100 1014.1
20240526094705 73 139 0.0 0.0 0.00 0.00 0.00 100 1014.1
20240526090204 73 139 0.0 0.0 0.00 0.00 0.00 98 1014.1
20240526083204 74 139 0.0 0.0 0.00 0.00 0.00 97 1013.1
20240526073704 74 139 0.0 0.0 0.00 0.00 0.00 92 1013.1
20240526070204 74 139 0.0 0.0 0.00 0.00 0.00 89 1013.3